Cary, NC (27513)

10:56 PM EDT on June 01, 2015 (GMT -0400)
Preston Forest | | Change Station
CLOSE
Current Station
Personal Weather Station
Location: Cary, NC
Elevation: 346 ft
Nearby Weather Stations

Elev 346 ft 35.79 °N, 78.84 °W | Updated 1 second ago

Mostly Cloudy
Mostly Cloudy
69.6 °F
Feels Like 69.6 °F
N
-
Wind Variable Wind from North

Today
High -- | Low -- °F
--% Chance of Precip.
Yesterday
High -- | Low -- °F
Precip. -- in
6:00 AM 8:25 PM
Full, 100% visible
Pressure 30.03 in
Visibility 10.0 miles
Clouds Few 5500 ft
Scattered Clouds 15000 ft
Mostly Cloudy 20000 ft
Dew Point 67 °F
Humidity 91%
Rainfall -999.00 in
Snow Depth Not available.
UV 0 out of 12
Pollen 6.90 out of 12
Air Quality Not available.
Flu Activity No Activity
METAR KRDU 020251Z 17006KT 10SM FEW055 SCT150 BKN200 21/19 A3004 RMK AO2 SLP168 T02110194 53012 $

More Conditions Fewer Conditions

Pressure 30.03 in
Visibility 10.0 miles
Clouds Few 5500 ft
Scattered Clouds 15000 ft
Mostly Cloudy 20000 ft
Dew Point 67 °F
Humidity 91%
Rainfall -999.00 in
Snow Depth Not available.
UV 0 out of 12
Pollen 6.90 out of 12
Air Quality Not available.
Flu Activity No Activity
METAR KRDU 020251Z 17006KT 10SM FEW055 SCT150 BKN200 21/19 A3004 RMK AO2 SLP168 T02110194 53012 $

More Conditions Fewer Conditions

10-Day Weather Forecast

Almanac

Astronomy

Jun. 01, 2015 Rise Set
Actual Time
Civil Twilight
Nautical Twilight
Astronomical Twilight
Moon
Length of Visible Light
Length of Day
Tomorrow will be .
, % of the Moon is Illuminated

Today's Extremes

State Highs State Lows

Community

WunderPhotos

Upload Photos

1,825,858 photos uploaded!

WunderBlogs® & News

Nearby

Air Quality

  Air Quality AQ Index Pollutant
Not available.

Snow Depth

Station Depth Elevation

Earthquake Activity

City Distance Mag. Time & Date
Minimum magnitude displayed is 2.5.

Coastal Water Temperatures

Place Temperature

Stations

Nearby Weather Stations

Station Location Temp. Windchill Dew Point Humidity Wind Precip. Elev Updated Type